Time;durP1;ratioP1;P1;durP2;ratioP2;P2;SDS_P1;SDS_P2;PMS_P1;PMS_P2;Temp;Humidity;BMP_temperature;BMP_pressure;BME280_temperature;BME280_humidity;BME280_pressure;Samples;Min_cycle;Max_cycle;Signal;HPM_P1;HPM_P2
2022/06/16 00:01:50;;;;;;;;;;;;;;;;;;5134838;27;19924;-65
2022/06/16 00:04:16;;;;;;;;;;;;;;;;;;5126187;28;19924;-65
2022/06/16 00:06:42;;;;;;;;;;;;;;;;;;5119042;27;19959;-65
2022/06/16 00:09:08;;;;;;;;;;;;;;;;;;5127684;28;19924;-65
2022/06/16 00:11:34;;;;;;;;;;;;;;;;;;5126349;28;19924;-65
2022/06/16 00:14:00;;;;;;;;;;;;;;;;;;5115908;28;19924;-65
2022/06/16 00:16:26;;;;;;;;;;;;;;;;;;5124892;28;19970;-66
2022/06/16 00:18:52;;;;;;;;;;;;;;;;;;5126695;28;19923;-65
2022/06/16 00:21:18;;;;;;;;;;;;;;;;;;5125046;28;20413;-65
2022/06/16 00:23:44;;;;;;;;;;;;;;;;;;5125857;28;19924;-65
2022/06/16 00:26:11;;;;;;;;;;;;;;;;;;5126323;28;19954;-65
2022/06/16 00:28:37;;;;;;;;;;;;;;;;;;5126155;28;19938;-65
2022/06/16 00:31:03;;;;;;;;;;;;;;;;;;5126193;28;20022;-65
2022/06/16 00:33:29;;;;;;;;;;;;;;;;;;5126001;28;19957;-65
2022/06/16 00:35:55;;;;;;;;;;;;;;;;;;5124700;28;19924;-65
2022/06/16 00:38:21;;;;;;;;;;;;;;;;;;5111791;27;19924;-65
2022/06/16 00:40:47;;;;;;;;;;;;;;;;;;5124887;28;19930;-65
2022/06/16 00:43:13;;;;;;;;;;;;;;;;;;5126551;28;20018;-65
2022/06/16 00:45:39;;;;;;;;;;;;;;;;;;5121620;28;20272;-65
2022/06/16 00:48:05;;;;;;;;;;;;;;;;;;5122764;28;19923;-65
2022/06/16 00:50:31;;;;;;;;;;;;;;;;;;5126579;27;19923;-65
2022/06/16 00:52:57;;;;;;;;;;;;;;;;;;5125840;28;19924;-64
2022/06/16 00:55:23;;;;;;;;;;;;;;;;;;5115381;28;19926;-64
2022/06/16 00:57:49;;;;;;;;;;;;;;;;;;5123954;28;19967;-65
2022/06/16 01:00:16;;;;;;;;;;;;;;;;;;5113260;28;20398;-63
2022/06/16 01:02:42;;;;;;;;;;;;;;;;;;5125479;28;19924;-64
2022/06/16 01:05:08;;;;;;;;;;;;;;;;;;5124452;28;19931;-64
2022/06/16 01:07:34;;;;;;;;;;;;;;;;;;5115802;28;19946;-64
2022/06/16 01:10:00;;;;;;;;;;;;;;;;;;5121745;28;19963;-64
2022/06/16 01:15:11;;;;;;;;;;;;;;;;;;5126536;28;19934;-64
2022/06/16 01:17:37;;;;;;;;;;;;;;;;;;5125287;28;19923;-64
2022/06/16 01:20:03;;;;;;;;;;;;;;;;;;5122168;28;19932;-65
2022/06/16 01:22:29;;;;;;;;;;;;;;;;;;5121105;28;20022;-64
2022/06/16 01:24:55;;;;;;;;;;;;;;;;;;5115916;28;19931;-64
2022/06/16 01:27:21;;;;;;;;;;;;;;;;;;5121690;28;19924;-64
2022/06/16 01:29:47;;;;;;;;;;;;;;;;;;5126267;28;19949;-65
2022/06/16 01:32:13;;;;;;;;;;;;;;;;;;5125017;28;19963;-64
2022/06/16 01:34:39;;;;;;;;;;;;;;;;;;5123479;28;19924;-64
2022/06/16 01:37:05;;;;;;;;;;;;;;;;;;5121211;27;19928;-64
2022/06/16 01:39:31;;;;;;;;;;;;;;;;;;5123100;28;20552;-64
2022/06/16 01:41:57;;;;;;;;;;;;;;;;;;5117346;28;19943;-64
2022/06/16 01:44:24;;;;;;;;;;;;;;;;;;5121845;27;19940;-64
2022/06/16 01:46:50;;;;;;;;;;;;;;;;;;5127628;27;20343;-65
2022/06/16 01:49:16;;;;;;;;;;;;;;;;;;5125982;28;20026;-65
2022/06/16 01:51:42;;;;;;;;;;;;;;;;;;5125982;28;19924;-64
2022/06/16 01:54:08;;;;;;;;;;;;;;;;;;5156244;27;20700;-64
2022/06/16 01:56:34;;;;;;;;;;;;;;;;;;5120731;28;19924;-64
2022/06/16 01:59:00;;;;;;;;;;;;;;;;;;5123891;28;19924;-65
2022/06/16 02:01:26;;;;;;;;;;;;;;;;;;5120164;28;19995;-64
2022/06/16 02:03:54;;;;;;;;;;;;;;;;;;5111698;28;19924;-64
2022/06/16 02:06:20;;;;;;;;;;;;;;;;;;5129836;28;19924;-64
2022/06/16 02:08:46;;;;;;;;;;;;;;;;;;5131726;28;19972;-64
2022/06/16 02:11:12;;;;;;;;;;;;;;;;;;5122751;27;19923;-64
2022/06/16 02:13:38;;;;;;;;;;;;;;;;;;5128281;27;20026;-64
2022/06/16 02:16:04;;;;;;;;;;;;;;;;;;5162145;27;20324;-64
2022/06/16 02:18:30;;;;;;;;;;;;;;;;;;5131077;28;19930;-64
2022/06/16 02:20:56;;;;;;;;;;;;;;;;;;5132434;27;19928;-64
2022/06/16 02:23:22;;;;;;;;;;;;;;;;;;5131332;28;19924;-64
2022/06/16 02:25:48;;;;;;;;;;;;;;;;;;5131888;28;19960;-64
2022/06/16 02:28:15;;;;;;;;;;;;;;;;;;5125843;28;19924;-64
2022/06/16 02:30:41;;;;;;;;;;;;;;;;;;5125517;27;19959;-64
2022/06/16 02:33:07;;;;;;;;;;;;;;;;;;5121257;28;19928;-64
2022/06/16 02:35:34;;;;;;;;;;;;;;;;;;5130586;28;19931;-64
2022/06/16 02:38:00;;;;;;;;;;;;;;;;;;5125882;27;19920;-64
2022/06/16 02:40:26;;;;;;;;;;;;;;;;;;5130645;28;20463;-64
2022/06/16 02:42:52;;;;;;;;;;;;;;;;;;5133236;27;19999;-64
2022/06/16 02:45:18;;;;;;;;;;;;;;;;;;5130312;28;19983;-64
2022/06/16 02:47:45;;;;;;;;;;;;;;;;;;5131700;27;19930;-64
2022/06/16 02:50:11;;;;;;;;;;;;;;;;;;5131230;27;19999;-64
2022/06/16 02:52:37;;;;;;;;;;;;;;;;;;5129926;27;19924;-64
2022/06/16 02:55:05;;;;;;;;;;;;;;;;;;5127088;27;19931;-64
2022/06/16 02:57:31;;;;;;;;;;;;;;;;;;5123377;27;19924;-65
2022/06/16 02:59:57;;;;;;;;;;;;;;;;;;5129568;28;19931;-64
2022/06/16 03:02:25;;;;;;;;;;;;;;;;;;5129772;27;21460;-64
2022/06/16 03:04:51;;;;;;;;;;;;;;;;;;5124008;28;19924;-64
2022/06/16 03:07:17;;;;;;;;;;;;;;;;;;5123751;28;20401;-64
2022/06/16 03:09:43;;;;;;;;;;;;;;;;;;5131608;28;20433;-64
2022/06/16 03:12:09;;;;;;;;;;;;;;;;;;5128389;27;20386;-64
2022/06/16 03:14:35;;;;;;;;;;;;;;;;;;5129455;27;19923;-64
2022/06/16 03:17:02;;;;;;;;;;;;;;;;;;5135011;27;19931;-64
2022/06/16 03:19:28;;;;;;;;;;;;;;;;;;5128450;27;20434;-64
2022/06/16 03:21:54;;;;;;;;;;;;;;;;;;5126614;28;19924;-65
2022/06/16 03:24:20;;;;;;;;;;;;;;;;;;5116848;28;19976;-64
2022/06/16 03:26:46;;;;;;;;;;;;;;;;;;5125913;28;19935;-64
2022/06/16 03:29:12;;;;;;;;;;;;;;;;;;5126204;28;19928;-64
2022/06/16 03:31:38;;;;;;;;;;;;;;;;;;5125401;28;19946;-64
2022/06/16 03:34:04;;;;;;;;;;;;;;;;;;5121324;28;19955;-64
2022/06/16 03:36:30;;;;;;;;;;;;;;;;;;5128521;28;20023;-64
2022/06/16 03:38:56;;;;;;;;;;;;;;;;;;5128377;28;19989;-64
2022/06/16 03:41:22;;;;;;;;;;;;;;;;;;5122287;28;19927;-64
2022/06/16 03:43:48;;;;;;;;;;;;;;;;;;5126705;27;20322;-65
2022/06/16 03:46:16;;;;;;;;;;;;;;;;;;5133826;27;19931;-64
2022/06/16 03:48:42;;;;;;;;;;;;;;;;;;5125762;28;20312;-64
2022/06/16 03:51:09;;;;;;;;;;;;;;;;;;5127676;28;19923;-64
2022/06/16 03:53:35;;;;;;;;;;;;;;;;;;5123963;28;21464;-64
2022/06/16 03:56:01;;;;;;;;;;;;;;;;;;5119616;28;19923;-64
2022/06/16 03:58:27;;;;;;;;;;;;;;;;;;5155823;27;19935;-65
2022/06/16 04:00:53;;;;;;;;;;;;;;;;;;5123023;28;19945;-64
2022/06/16 04:06:20;;;;;;;;;;;;;;;;;;5123711;28;19923;-64
2022/06/16 04:08:46;;;;;;;;;;;;;;;;;;5121149;28;19990;-64
2022/06/16 04:11:27;;;;;;;;;;;;;;;;;;5124740;28;19930;-64
2022/06/16 04:13:53;;;;;;;;;;;;;;;;;;5118517;28;19924;-65
2022/06/16 04:16:19;;;;;;;;;;;;;;;;;;5114441;28;20315;-64
2022/06/16 04:18:45;;;;;;;;;;;;;;;;;;5124786;28;19923;-64
2022/06/16 04:21:11;;;;;;;;;;;;;;;;;;5110926;28;19967;-65
2022/06/16 04:23:37;;;;;;;;;;;;;;;;;;5118672;27;20026;-64
2022/06/16 04:26:04;;;;;;;;;;;;;;;;;;5103525;28;19927;-65
2022/06/16 04:28:30;;;;;;;;;;;;;;;;;;5114361;28;19928;-64
2022/06/16 04:30:56;;;;;;;;;;;;;;;;;;5117703;28;20008;-64
2022/06/16 04:33:22;;;;;;;;;;;;;;;;;;5123941;27;20029;-64
2022/06/16 04:35:48;;;;;;;;;;;;;;;;;;5124699;28;20546;-64
2022/06/16 04:38:14;;;;;;;;;;;;;;;;;;5124598;28;20457;-65
2022/06/16 04:40:40;;;;;;;;;;;;;;;;;;5113334;28;19923;-64
2022/06/16 04:43:06;;;;;;;;;;;;;;;;;;5124313;28;20406;-64
2022/06/16 04:45:32;;;;;;;;;;;;;;;;;;5126111;28;19947;-64
2022/06/16 04:47:58;;;;;;;;;;;;;;;;;;5122306;28;19927;-64
2022/06/16 04:50:24;;;;;;;;;;;;;;;;;;5124409;28;20018;-64
2022/06/16 04:52:49;;;;;;;;;;;;;;;;;;5125275;27;19924;-64
2022/06/16 04:55:15;;;;;;;;;;;;;;;;;;5122958;28;19934;-64
2022/06/16 04:57:41;;;;;;;;;;;;;;;;;;5125250;27;19923;-64
2022/06/16 05:00:07;;;;;;;;;;;;;;;;;;5123504;28;19924;-64
2022/06/16 05:02:33;;;;;;;;;;;;;;;;;;5126421;28;19946;-64
2022/06/16 05:04:59;;;;;;;;;;;;;;;;;;5126211;28;19934;-64
2022/06/16 05:07:25;;;;;;;;;;;;;;;;;;5126457;28;19930;-64
2022/06/16 05:09:51;;;;;;;;;;;;;;;;;;5123695;28;20028;-64
2022/06/16 05:12:17;;;;;;;;;;;;;;;;;;5125670;28;19939;-64
2022/06/16 05:14:43;;;;;;;;;;;;;;;;;;5124267;28;20003;-64
2022/06/16 05:17:09;;;;;;;;;;;;;;;;;;5125970;28;19931;-64
2022/06/16 05:19:35;;;;;;;;;;;;;;;;;;5122791;28;19924;-64
2022/06/16 05:22:01;;;;;;;;;;;;;;;;;;5124769;28;19924;-64
2022/06/16 05:24:27;;;;;;;;;;;;;;;;;;5121810;28;19919;-64
2022/06/16 05:26:53;;;;;;;;;;;;;;;;;;5120031;27;19927;-64
2022/06/16 05:29:19;;;;;;;;;;;;;;;;;;5133740;27;20023;-64
2022/06/16 05:31:45;;;;;;;;;;;;;;;;;;5118928;28;20628;-64
2022/06/16 05:34:11;;;;;;;;;;;;;;;;;;5125795;27;19924;-64
2022/06/16 05:36:37;;;;;;;;;;;;;;;;;;5125916;28;19920;-64
2022/06/16 05:39:03;;;;;;;;;;;;;;;;;;5134864;27;19949;-64
2022/06/16 05:41:29;;;;;;;;;;;;;;;;;;5125740;28;19924;-64
2022/06/16 05:43:55;;;;;;;;;;;;;;;;;;5122952;28;19924;-64
2022/06/16 05:46:21;;;;;;;;;;;;;;;;;;5119307;28;19924;-64
2022/06/16 05:48:47;;;;;;;;;;;;;;;;;;5118893;28;19928;-65
2022/06/16 05:51:13;;;;;;;;;;;;;;;;;;5124308;28;19924;-64
2022/06/16 05:53:39;;;;;;;;;;;;;;;;;;5129291;27;19924;-64
2022/06/16 05:56:05;;;;;;;;;;;;;;;;;;5134278;27;19934;-65
2022/06/16 05:58:31;;;;;;;;;;;;;;;;;;5131661;27;19931;-65
2022/06/16 06:00:57;;;;;;;;;;;;;;;;;;5136643;27;19927;-64
2022/06/16 06:03:23;;;;;;;;;;;;;;;;;;5124628;28;19931;-65
2022/06/16 06:05:49;;;;;;;;;;;;;;;;;;5127455;28;19931;-64
2022/06/16 06:16:29;;;;;;;;;;;;;;;;;;5120218;28;19930;-64
2022/06/16 06:18:55;;;;;;;;;;;;;;;;;;5123479;28;19928;-64
2022/06/16 06:21:58;;;;;;;;;;;;;;;;;;5120511;28;19931;-64
2022/06/16 06:24:07;;;;;;;;;;;;;;;;;;5125395;27;19931;-64
2022/06/16 06:26:33;;;;;;;;;;;;;;;;;;5128720;28;19924;-64
2022/06/16 06:28:59;;;;;;;;;;;;;;;;;;5125424;28;19967;-64
2022/06/16 06:31:25;;;;;;;;;;;;;;;;;;5125213;28;19987;-64
2022/06/16 06:33:51;;;;;;;;;;;;;;;;;;5125354;28;19924;-64
2022/06/16 06:36:17;;;;;;;;;;;;;;;;;;5125114;28;19927;-64
2022/06/16 06:38:43;;;;;;;;;;;;;;;;;;5125530;28;20331;-64
2022/06/16 06:41:09;;;;;;;;;;;;;;;;;;5125134;28;19927;-64
2022/06/16 06:43:35;;;;;;;;;;;;;;;;;;5125163;28;19924;-64
2022/06/16 06:46:01;;;;;;;;;;;;;;;;;;5124657;28;19928;-64
2022/06/16 06:48:27;;;;;;;;;;;;;;;;;;5127429;28;19930;-71
2022/06/16 06:50:53;;;;;;;;;;;;;;;;;;5148542;27;19924;-71
2022/06/16 06:53:19;;;;;;;;;;;;;;;;;;5162246;27;19932;-71
2022/06/16 06:55:45;;;;;;;;;;;;;;;;;;5128902;28;19924;-71
2022/06/16 06:58:11;;;;;;;;;;;;;;;;;;5130728;27;19924;-71
2022/06/16 07:00:37;;;;;;;;;;;;;;;;;;5128245;28;19924;-71
2022/06/16 07:03:03;;;;;;;;;;;;;;;;;;5128739;28;19949;-71
2022/06/16 07:05:29;;;;;;;;;;;;;;;;;;5128419;28;19931;-71
2022/06/16 07:07:58;;;;;;;;;;;;;;;;;;5127263;28;19931;-71
2022/06/16 07:10:24;;;;;;;;;;;;;;;;;;5124080;28;19931;-71
2022/06/16 07:12:51;;;;;;;;;;;;;;;;;;5128624;28;19924;-72
2022/06/16 07:15:17;;;;;;;;;;;;;;;;;;5128460;28;19931;-69
2022/06/16 07:17:43;;;;;;;;;;;;;;;;;;5128508;28;19923;-71
2022/06/16 07:20:09;;;;;;;;;;;;;;;;;;5128610;28;19945;-71
2022/06/16 07:22:35;;;;;;;;;;;;;;;;;;5128571;27;19930;-71
2022/06/16 07:25:01;;;;;;;;;;;;;;;;;;5126798;28;20018;-70
2022/06/16 07:27:27;;;;;;;;;;;;;;;;;;5132107;27;20026;-71
2022/06/16 07:29:54;;;;;;;;;;;;;;;;;;5134890;27;19930;-71
2022/06/16 07:32:20;;;;;;;;;;;;;;;;;;5132828;27;19931;-71
2022/06/16 07:34:46;;;;;;;;;;;;;;;;;;5142141;27;19938;-71
2022/06/16 07:37:12;;;;;;;;;;;;;;;;;;5128925;27;19923;-71
2022/06/16 07:39:38;;;;;;;;;;;;;;;;;;5132421;27;19968;-72
2022/06/16 07:42:04;;;;;;;;;;;;;;;;;;5131458;27;19924;-71
2022/06/16 07:44:30;;;;;;;;;;;;;;;;;;5139344;27;19932;-71
2022/06/16 07:46:56;;;;;;;;;;;;;;;;;;5129347;27;19928;-71
2022/06/16 07:49:22;;;;;;;;;;;;;;;;;;5119854;27;19924;-72
2022/06/16 07:51:48;;;;;;;;;;;;;;;;;;5127756;27;19924;-72
2022/06/16 07:54:14;;;;;;;;;;;;;;;;;;5127760;28;20486;-72
2022/06/16 07:56:40;;;;;;;;;;;;;;;;;;5127858;28;19924;-72
2022/06/16 07:59:06;;;;;;;;;;;;;;;;;;5127824;27;19928;-72
2022/06/16 08:01:32;;;;;;;;;;;;;;;;;;5154030;27;19923;-72
2022/06/16 08:04:05;;;;;;;;;;;;;;;;;;5125876;27;19977;-72
2022/06/16 08:06:31;;;;;;;;;;;;;;;;;;5130459;27;19924;-72
2022/06/16 08:08:57;;;;;;;;;;;;;;;;;;5146019;27;19927;-72
2022/06/16 08:14:07;;;;;;;;;;;;;;;;;;5125888;27;19984;-72
2022/06/16 08:16:33;;;;;;;;;;;;;;;;;;5127853;27;20291;-72
2022/06/16 08:18:59;;;;;;;;;;;;;;;;;;5128536;27;19931;-72
2022/06/16 08:21:25;;;;;;;;;;;;;;;;;;5125912;28;19924;-71
2022/06/16 08:23:52;;;;;;;;;;;;;;;;;;5127074;28;19930;-71
2022/06/16 08:26:18;;;;;;;;;;;;;;;;;;5125960;28;19924;-71
2022/06/16 08:28:44;;;;;;;;;;;;;;;;;;5127277;28;19931;-72
2022/06/16 08:31:10;;;;;;;;;;;;;;;;;;5126909;28;19927;-72
2022/06/16 08:33:36;;;;;;;;;;;;;;;;;;5126211;28;19939;-71
2022/06/16 08:36:02;;;;;;;;;;;;;;;;;;5141671;27;19931;-71
2022/06/16 08:38:28;;;;;;;;;;;;;;;;;;5126961;28;19931;-71
2022/06/16 08:41:11;;;;;;;;;;;;;;;;;;5130517;27;19923;-72
2022/06/16 08:43:37;;;;;;;;;;;;;;;;;;5130126;27;19924;-72
2022/06/16 08:46:03;;;;;;;;;;;;;;;;;;5131703;27;19924;-64
2022/06/16 08:48:29;;;;;;;;;;;;;;;;;;5126527;28;19932;-64
2022/06/16 08:50:55;;;;;;;;;;;;;;;;;;5126824;28;19935;-64
2022/06/16 08:53:21;;;;;;;;;;;;;;;;;;5133805;27;19924;-64
2022/06/16 08:55:47;;;;;;;;;;;;;;;;;;5126647;28;19920;-64
2022/06/16 08:58:13;;;;;;;;;;;;;;;;;;5126656;28;20215;-64
2022/06/16 09:00:39;;;;;;;;;;;;;;;;;;5126339;28;19934;-64
2022/06/16 09:03:05;;;;;;;;;;;;;;;;;;5124567;28;19923;-64
2022/06/16 09:05:31;;;;;;;;;;;;;;;;;;5133807;27;19935;-64
2022/06/16 09:07:57;;;;;;;;;;;;;;;;;;5137613;27;19974;-64
2022/06/16 09:10:24;;;;;;;;;;;;;;;;;;5126340;28;19923;-64
2022/06/16 09:12:50;;;;;;;;;;;;;;;;;;5126336;28;19993;-64
2022/06/16 09:15:20;;;;;;;;;;;;;;;;;;5125319;28;20327;-64
2022/06/16 09:17:47;;;;;;;;;;;;;;;;;;5111726;28;20014;-65
2022/06/16 09:20:13;;;;;;;;;;;;;;;;;;5126311;28;19924;-65
2022/06/16 09:22:39;;;;;;;;;;;;;;;;;;5126159;28;20284;-64
2022/06/16 09:25:05;;;;;;;;;;;;;;;;;;5126566;28;20287;-64
2022/06/16 09:27:31;;;;;;;;;;;;;;;;;;5126092;28;19976;-65
2022/06/16 09:29:57;;;;;;;;;;;;;;;;;;5126135;28;19927;-65
2022/06/16 09:32:23;;;;;;;;;;;;;;;;;;5124933;28;19969;-64
2022/06/16 09:34:49;;;;;;;;;;;;;;;;;;5125923;28;20276;-65
2022/06/16 09:37:15;;;;;;;;;;;;;;;;;;5124030;28;19931;-65
2022/06/16 09:39:41;;;;;;;;;;;;;;;;;;5125790;28;20013;-64
2022/06/16 09:44:51;;;;;;;;;;;;;;;;;;5120794;28;20016;-65
2022/06/16 09:47:17;;;;;;;;;;;;;;;;;;5125774;28;19924;-64
2022/06/16 09:49:43;;;;;;;;;;;;;;;;;;5124781;28;20344;-65
2022/06/16 09:52:10;;;;;;;;;;;;;;;;;;5126651;27;19924;-64
2022/06/16 09:54:36;;;;;;;;;;;;;;;;;;5140853;27;19976;-64
2022/06/16 09:57:02;;;;;;;;;;;;;;;;;;5128053;27;19928;-64
2022/06/16 09:59:28;;;;;;;;;;;;;;;;;;5133721;27;20084;-65
2022/06/16 10:01:54;;;;;;;;;;;;;;;;;;5134448;27;19954;-65
2022/06/16 10:04:20;;;;;;;;;;;;;;;;;;5125770;28;19924;-64
2022/06/16 10:06:51;;;;;;;;;;;;;;;;;;5125613;28;20558;-64
2022/06/16 10:09:18;;;;;;;;;;;;;;;;;;5124644;27;19934;-64
2022/06/16 10:11:44;;;;;;;;;;;;;;;;;;5125428;28;19924;-64
2022/06/16 10:14:12;;;;;;;;;;;;;;;;;;5125388;28;20339;-64
2022/06/16 10:16:38;;;;;;;;;;;;;;;;;;5125196;28;19924;-65
2022/06/16 10:19:06;;;;;;;;;;;;;;;;;;5125244;28;19932;-65
2022/06/16 10:21:32;;;;;;;;;;;;;;;;;;5132523;27;19935;-65
2022/06/16 10:23:58;;;;;;;;;;;;;;;;;;5125434;28;20000;-65
2022/06/16 10:26:24;;;;;;;;;;;;;;;;;;5126726;28;19924;-65
2022/06/16 10:28:50;;;;;;;;;;;;;;;;;;5129577;28;19924;-64
2022/06/16 10:31:16;;;;;;;;;;;;;;;;;;5129498;28;19938;-64
2022/06/16 10:33:42;;;;;;;;;;;;;;;;;;5129474;28;19932;-64
2022/06/16 10:36:08;;;;;;;;;;;;;;;;;;5127920;28;19923;-64
2022/06/16 10:38:34;;;;;;;;;;;;;;;;;;5129129;28;19963;-64
2022/06/16 10:41:00;;;;;;;;;;;;;;;;;;5132215;27;19931;-64
2022/06/16 10:43:26;;;;;;;;;;;;;;;;;;5129077;28;19984;-64
2022/06/16 10:45:52;;;;;;;;;;;;;;;;;;5129099;28;20260;-64
2022/06/16 10:48:18;;;;;;;;;;;;;;;;;;5129198;28;19935;-65
2022/06/16 10:50:44;;;;;;;;;;;;;;;;;;5129165;28;19976;-64
2022/06/16 10:53:10;;;;;;;;;;;;;;;;;;5129109;28;19931;-64
2022/06/16 10:55:36;;;;;;;;;;;;;;;;;;5128848;28;19928;-64
2022/06/16 10:58:02;;;;;;;;;;;;;;;;;;5128867;28;20282;-64
2022/06/16 11:00:28;;;;;;;;;;;;;;;;;;5128653;28;19924;-64
2022/06/16 11:02:54;;;;;;;;;;;;;;;;;;5128755;28;19945;-65
2022/06/16 11:05:20;;;;;;;;;;;;;;;;;;5128540;28;19924;-64
2022/06/16 11:07:46;;;;;;;;;;;;;;;;;;5129920;27;19935;-64
2022/06/16 11:10:12;;;;;;;;;;;;;;;;;;5147246;27;19923;-64
2022/06/16 11:12:39;;;;;;;;;;;;;;;;;;5128831;28;19923;-64
2022/06/16 11:15:05;;;;;;;;;;;;;;;;;;5129095;28;19924;-64
2022/06/16 11:17:30;;;;;;;;;;;;;;;;;;5135091;27;20302;-64
2022/06/16 11:19:58;;;;;;;;;;;;;;;;;;5132426;27;19933;-64
2022/06/16 11:22:23;;;;;;;;;;;;;;;;;;5132714;27;19970;-64
2022/06/16 11:24:49;;;;;;;;;;;;;;;;;;5128636;28;19924;-65
2022/06/16 11:27:15;;;;;;;;;;;;;;;;;;5128682;28;19931;-64
2022/06/16 11:29:41;;;;;;;;;;;;;;;;;;5128498;28;19927;-64
2022/06/16 11:32:07;;;;;;;;;;;;;;;;;;5128280;28;19924;-64
2022/06/16 11:34:33;;;;;;;;;;;;;;;;;;5128178;28;19923;-64
2022/06/16 11:37:00;;;;;;;;;;;;;;;;;;5128213;28;19973;-64
2022/06/16 11:39:26;;;;;;;;;;;;;;;;;;5127235;28;19991;-64
2022/06/16 11:41:52;;;;;;;;;;;;;;;;;;5127987;28;19984;-64
2022/06/16 11:44:19;;;;;;;;;;;;;;;;;;5128164;28;19938;-64
2022/06/16 11:46:45;;;;;;;;;;;;;;;;;;5127847;28;19924;-64
2022/06/16 11:49:11;;;;;;;;;;;;;;;;;;5128101;28;19934;-64
2022/06/16 11:51:37;;;;;;;;;;;;;;;;;;5127916;27;20012;-64
2022/06/16 11:54:03;;;;;;;;;;;;;;;;;;5130934;27;19923;-65
2022/06/16 11:56:30;;;;;;;;;;;;;;;;;;5132181;27;19946;-65
2022/06/16 11:58:56;;;;;;;;;;;;;;;;;;5126831;27;19971;-65
2022/06/16 12:01:22;;;;;;;;;;;;;;;;;;5121940;27;19969;-64
2022/06/16 12:03:48;;;;;;;;;;;;;;;;;;5123831;27;20018;-64
2022/06/16 12:06:14;;;;;;;;;;;;;;;;;;5132887;27;19923;-64
2022/06/16 12:08:40;;;;;;;;;;;;;;;;;;5153562;27;19924;-64
2022/06/16 12:11:06;;;;;;;;;;;;;;;;;;5132620;27;19928;-63
2022/06/16 12:13:32;;;;;;;;;;;;;;;;;;5125141;27;20272;-64
2022/06/16 12:15:58;;;;;;;;;;;;;;;;;;5129413;27;19944;-60
2022/06/16 12:18:24;;;;;;;;;;;;;;;;;;5124915;27;19983;-70
2022/06/16 12:20:50;;;;;;;;;;;;;;;;;;5127202;28;19928;-70
2022/06/16 12:23:16;;;;;;;;;;;;;;;;;;5121235;28;19939;-69
2022/06/16 12:25:45;;;;;;;;;;;;;;;;;;5127132;28;19931;-71
2022/06/16 12:28:11;;;;;;;;;;;;;;;;;;5127073;28;19931;-71
2022/06/16 12:30:37;;;;;;;;;;;;;;;;;;5124580;27;19924;-70
2022/06/16 12:33:03;;;;;;;;;;;;;;;;;;5124871;27;19923;-70
2022/06/16 12:35:29;;;;;;;;;;;;;;;;;;5126610;27;20024;-71
2022/06/16 12:37:55;;;;;;;;;;;;;;;;;;5131527;27;19962;-70
2022/06/16 12:40:21;;;;;;;;;;;;;;;;;;5134728;27;19923;-69
2022/06/16 12:42:47;;;;;;;;;;;;;;;;;;5165927;27;19945;-70
2022/06/16 12:45:13;;;;;;;;;;;;;;;;;;5133252;27;19932;-70
2022/06/16 12:47:39;;;;;;;;;;;;;;;;;;5133807;27;19987;-69
2022/06/16 12:50:05;;;;;;;;;;;;;;;;;;5127258;27;19924;-69
2022/06/16 12:52:31;;;;;;;;;;;;;;;;;;5124149;27;19984;-70
2022/06/16 12:55:00;;;;;;;;;;;;;;;;;;5126077;27;19927;-68
2022/06/16 12:57:26;;;;;;;;;;;;;;;;;;5127176;27;19928;-70
2022/06/16 12:59:53;;;;;;;;;;;;;;;;;;5131617;27;19931;-70
2022/06/16 13:02:19;;;;;;;;;;;;;;;;;;5128312;27;19993;-70
2022/06/16 13:04:45;;;;;;;;;;;;;;;;;;5119602;28;19935;-70
2022/06/16 13:07:12;;;;;;;;;;;;;;;;;;5136406;27;19924;-71
2022/06/16 13:09:38;;;;;;;;;;;;;;;;;;5126511;28;19923;-70
2022/06/16 13:12:05;;;;;;;;;;;;;;;;;;5126038;28;19932;-69
2022/06/16 13:14:31;;;;;;;;;;;;;;;;;;5126618;27;20002;-69
2022/06/16 13:16:57;;;;;;;;;;;;;;;;;;5128769;27;19931;-69
2022/06/16 13:19:23;;;;;;;;;;;;;;;;;;5133182;27;19931;-70
2022/06/16 13:21:49;;;;;;;;;;;;;;;;;;5126304;28;19924;-70
2022/06/16 13:24:21;;;;;;;;;;;;;;;;;;5125452;28;19924;-70
2022/06/16 13:26:47;;;;;;;;;;;;;;;;;;5119675;28;19987;-70
2022/06/16 13:29:15;;;;;;;;;;;;;;;;;;5128360;27;19931;-70
2022/06/16 13:31:41;;;;;;;;;;;;;;;;;;5124327;28;19924;-70
2022/06/16 13:34:07;;;;;;;;;;;;;;;;;;5124865;28;19939;-70
2022/06/16 13:36:33;;;;;;;;;;;;;;;;;;5125919;28;19924;-71
2022/06/16 13:38:59;;;;;;;;;;;;;;;;;;5127108;27;19923;-71
2022/06/16 13:41:25;;;;;;;;;;;;;;;;;;5127567;27;19923;-71
2022/06/16 13:43:51;;;;;;;;;;;;;;;;;;5126240;28;19928;-71
2022/06/16 13:46:17;;;;;;;;;;;;;;;;;;5126867;27;19923;-71
2022/06/16 13:48:44;;;;;;;;;;;;;;;;;;5126903;27;19991;-71
2022/06/16 13:51:10;;;;;;;;;;;;;;;;;;5134530;27;19923;-71
2022/06/16 13:53:36;;;;;;;;;;;;;;;;;;5128701;28;19953;-71
2022/06/16 13:56:02;;;;;;;;;;;;;;;;;;5126060;28;19928;-71
2022/06/16 13:58:28;;;;;;;;;;;;;;;;;;5125361;28;19931;-71
2022/06/16 14:00:54;;;;;;;;;;;;;;;;;;5124616;28;19923;-70
2022/06/16 14:03:20;;;;;;;;;;;;;;;;;;5125364;28;19924;-71
2022/06/16 14:05:46;;;;;;;;;;;;;;;;;;5125674;28;20451;-72
2022/06/16 14:08:12;;;;;;;;;;;;;;;;;;5125656;28;19924;-71
2022/06/16 14:10:38;;;;;;;;;;;;;;;;;;5125354;28;19924;-71
2022/06/16 14:13:04;;;;;;;;;;;;;;;;;;5125257;28;19919;-71
2022/06/16 14:15:30;;;;;;;;;;;;;;;;;;5127161;28;19924;-71
2022/06/16 14:17:57;;;;;;;;;;;;;;;;;;5124791;28;20299;-71
2022/06/16 14:20:23;;;;;;;;;;;;;;;;;;5124089;28;19924;-71
2022/06/16 14:22:49;;;;;;;;;;;;;;;;;;5124398;28;20390;-71
2022/06/16 14:25:15;;;;;;;;;;;;;;;;;;5126223;28;19977;-71
2022/06/16 14:27:43;;;;;;;;;;;;;;;;;;5125476;27;19920;-71
2022/06/16 14:30:09;;;;;;;;;;;;;;;;;;5133273;27;19924;-71
2022/06/16 14:32:36;;;;;;;;;;;;;;;;;;5125050;28;19920;-71
2022/06/16 14:35:02;;;;;;;;;;;;;;;;;;5134524;28;19924;-72
2022/06/16 14:37:28;;;;;;;;;;;;;;;;;;5129188;28;19924;-71
2022/06/16 14:39:54;;;;;;;;;;;;;;;;;;5124289;28;20053;-71
2022/06/16 14:42:20;;;;;;;;;;;;;;;;;;5123717;28;20122;-72
2022/06/16 14:44:46;;;;;;;;;;;;;;;;;;5125263;28;20007;-71
2022/06/16 14:47:15;;;;;;;;;;;;;;;;;;5124098;28;19959;-72
2022/06/16 14:49:41;;;;;;;;;;;;;;;;;;5125416;28;20307;-72
2022/06/16 14:52:07;;;;;;;;;;;;;;;;;;5124976;28;19987;-72
2022/06/16 14:54:33;;;;;;;;;;;;;;;;;;5125238;28;19987;-71
2022/06/16 14:56:59;;;;;;;;;;;;;;;;;;5124346;28;19987;-71
2022/06/16 14:59:25;;;;;;;;;;;;;;;;;;5129793;28;19924;-72
2022/06/16 15:01:51;;;;;;;;;;;;;;;;;;5123547;28;19924;-71
2022/06/16 15:04:17;;;;;;;;;;;;;;;;;;5123608;28;20022;-71
2022/06/16 15:06:43;;;;;;;;;;;;;;;;;;5129191;27;19947;-71
2022/06/16 15:09:09;;;;;;;;;;;;;;;;;;5112718;27;20380;-71
2022/06/16 15:11:35;;;;;;;;;;;;;;;;;;5124465;28;19945;-72
2022/06/16 15:14:01;;;;;;;;;;;;;;;;;;5135653;27;19923;-72
2022/06/16 15:19:12;;;;;;;;;;;;;;;;;;5124043;27;19950;-72
2022/06/16 15:21:38;;;;;;;;;;;;;;;;;;5132368;27;19927;-71
2022/06/16 15:24:04;;;;;;;;;;;;;;;;;;5133331;27;20410;-70
2022/06/16 15:26:30;;;;;;;;;;;;;;;;;;5128358;27;19931;-71
2022/06/16 15:28:56;;;;;;;;;;;;;;;;;;5133580;27;19924;-72
2022/06/16 15:31:30;;;;;;;;;;;;;;;;;;5128329;28;19924;-71
2022/06/16 15:36:41;;;;;;;;;;;;;;;;;;5120528;28;19945;-70
2022/06/16 15:39:07;;;;;;;;;;;;;;;;;;5124605;28;19928;-71
2022/06/16 15:41:34;;;;;;;;;;;;;;;;;;5128041;28;20003;-71
2022/06/16 15:44:00;;;;;;;;;;;;;;;;;;5128182;27;20409;-72
2022/06/16 15:46:26;;;;;;;;;;;;;;;;;;5136624;27;19923;-70
2022/06/16 15:48:52;;;;;;;;;;;;;;;;;;5112732;28;19924;-72
2022/06/16 15:51:18;;;;;;;;;;;;;;;;;;5124666;27;19932;-72
2022/06/16 15:53:44;;;;;;;;;;;;;;;;;;5128201;27;19923;-70
2022/06/16 15:56:10;;;;;;;;;;;;;;;;;;5124496;27;19932;-74
2022/06/16 15:58:37;;;;;;;;;;;;;;;;;;5123010;27;19934;-71
2022/06/16 16:01:03;;;;;;;;;;;;;;;;;;5127743;27;19928;-72
2022/06/16 16:03:29;;;;;;;;;;;;;;;;;;5122143;28;19946;-72
2022/06/16 16:05:55;;;;;;;;;;;;;;;;;;5124531;27;19940;-73
2022/06/16 16:08:21;;;;;;;;;;;;;;;;;;5118511;27;20014;-72
2022/06/16 16:10:47;;;;;;;;;;;;;;;;;;5158933;27;19997;-73
2022/06/16 16:13:13;;;;;;;;;;;;;;;;;;5131585;27;19973;-74
2022/06/16 16:15:39;;;;;;;;;;;;;;;;;;5123352;27;20299;-76
2022/06/16 16:18:05;;;;;;;;;;;;;;;;;;5124371;27;19924;-76
2022/06/16 16:20:31;;;;;;;;;;;;;;;;;;5139020;27;19938;-76
2022/06/16 16:22:57;;;;;;;;;;;;;;;;;;5130496;27;20110;-75
2022/06/16 16:25:23;;;;;;;;;;;;;;;;;;5127401;27;19998;-75
2022/06/16 16:27:49;;;;;;;;;;;;;;;;;;5146459;27;20033;-75
2022/06/16 16:30:15;;;;;;;;;;;;;;;;;;5128325;27;20017;-75
2022/06/16 16:32:41;;;;;;;;;;;;;;;;;;5126129;27;19959;-66
2022/06/16 16:35:08;;;;;;;;;;;;;;;;;;5123460;27;20377;-69
2022/06/16 16:37:34;;;;;;;;;;;;;;;;;;5126981;28;19924;-69
2022/06/16 16:40:00;;;;;;;;;;;;;;;;;;5126640;28;19950;-69
2022/06/16 16:45:11;;;;;;;;;;;;;;;;;;5126738;28;19959;-69
2022/06/16 16:47:37;;;;;;;;;;;;;;;;;;5124465;28;19924;-69
2022/06/16 16:50:03;;;;;;;;;;;;;;;;;;5123143;28;19931;-70
2022/06/16 16:52:29;;;;;;;;;;;;;;;;;;5125863;28;19924;-69
2022/06/16 16:54:55;;;;;;;;;;;;;;;;;;5130084;27;19950;-69
2022/06/16 16:57:21;;;;;;;;;;;;;;;;;;5117581;28;19935;-69
2022/06/16 16:59:47;;;;;;;;;;;;;;;;;;5124395;28;19935;-69
2022/06/16 17:02:13;;;;;;;;;;;;;;;;;;5119356;28;19964;-70
2022/06/16 17:04:39;;;;;;;;;;;;;;;;;;5127408;27;19930;-70
2022/06/16 17:07:05;;;;;;;;;;;;;;;;;;5129070;27;19924;-71